createdAt,value
2023-03-26T00:01:44.436Z,61.71
2023-03-26T00:04:52.518Z,61.80
2023-03-26T00:08:00.969Z,61.75
2023-03-26T00:11:10.495Z,61.74
2023-03-26T00:14:25.425Z,61.53
2023-03-26T00:17:27.141Z,61.53
2023-03-26T00:20:42.418Z,61.64
2023-03-26T00:23:45.005Z,62.05
2023-03-26T00:26:59.427Z,62.39
2023-03-26T00:30:15.444Z,62.38
2023-03-26T00:33:30.486Z,62.28
2023-03-26T00:36:32.406Z,62.70
2023-03-26T00:39:47.415Z,62.62
2023-03-26T00:43:02.424Z,62.59
2023-03-26T00:46:11.005Z,62.80
2023-03-26T00:49:19.461Z,62.33
2023-03-26T00:52:27.972Z,61.69
2023-03-26T00:55:36.411Z,62.22
2023-03-26T00:58:45.936Z,61.98
2023-03-26T01:01:54.481Z,61.78
2023-03-26T01:05:39.441Z,61.90
2023-03-26T01:08:46.859Z,61.95
2023-03-26T01:12:01.468Z,62.09
2023-03-26T01:15:10.506Z,62.44
2023-03-26T01:18:22.857Z,62.37
2023-03-26T01:21:35.421Z,62.15
2023-03-26T01:24:50.506Z,61.85
2023-03-26T01:27:58.937Z,61.79
2023-03-26T01:31:21.430Z,61.29
2023-03-26T01:34:49.956Z,60.83
2023-03-26T01:38:21.118Z,60.75
2023-03-26T01:41:44.509Z,60.52
2023-03-26T01:44:59.812Z,60.69
2023-03-26T01:48:15.423Z,60.34
2023-03-26T01:51:35.741Z,59.72
2023-03-26T01:54:50.450Z,59.50
2023-03-26T01:58:19.281Z,59.63
2023-03-26T02:01:45.545Z,59.78
2023-03-26T02:05:30.486Z,60.12
2023-03-26T02:08:42.378Z,60.21
2023-03-26T02:11:51.825Z,60.53
2023-03-26T02:15:08.543Z,60.27
2023-03-26T02:18:10.325Z,60.45
2023-03-26T02:21:29.499Z,60.57
2023-03-26T02:24:45.450Z,60.31
2023-03-26T02:27:55.504Z,60.40
2023-03-26T02:31:11.580Z,60.98
2023-03-26T02:34:19.522Z,60.96
2023-03-26T02:37:28.127Z,61.04
2023-03-26T02:40:36.745Z,61.36
2023-03-26T02:43:45.239Z,61.72
2023-03-26T02:47:10.791Z,61.93
2023-03-26T02:50:19.886Z,62.25
2023-03-26T02:53:28.738Z,62.17
2023-03-26T02:56:43.548Z,62.21
2023-03-26T02:59:51.477Z,62.44
2023-03-26T03:03:07.588Z,62.76
2023-03-26T03:06:16.460Z,62.51
2023-03-26T03:09:25.197Z,62.20
2023-03-26T03:12:33.485Z,62.50
2023-03-26T03:15:48.601Z,62.04
2023-03-26T03:18:50.409Z,62.21
2023-03-26T03:22:06.212Z,61.92
2023-03-26T03:25:09.115Z,62.21
2023-03-26T03:28:23.512Z,62.01
2023-03-26T03:31:32.535Z,62.13
2023-03-26T03:34:47.550Z,62.07
2023-03-26T03:37:55.483Z,62.40
2023-03-26T03:41:17.534Z,62.35
2023-03-26T03:44:19.528Z,62.24
2023-03-26T03:47:34.574Z,62.15
2023-03-26T03:50:42.540Z,62.22
2023-03-26T03:53:51.101Z,62.59
2023-03-26T03:56:59.573Z,62.28
2023-03-26T04:00:09.171Z,61.72
2023-03-26T04:03:33.082Z,62.46
2023-03-26T04:06:35.833Z,62.51
2023-03-26T04:09:50.530Z,62.99
2023-03-26T04:13:05.522Z,63.07
2023-03-26T04:16:14.597Z,63.47
2023-03-26T04:19:29.616Z,63.84
2023-03-26T04:22:31.390Z,64.19
2023-03-26T04:25:52.790Z,64.23
2023-03-26T04:29:05.534Z,64.18
2023-03-26T04:32:32.597Z,63.66
2023-03-26T04:35:47.528Z,62.77
2023-03-26T04:38:49.949Z,62.47
2023-03-26T04:42:11.557Z,62.01
2023-03-26T04:45:21.557Z,61.61
2023-03-26T04:48:30.725Z,61.55
2023-03-26T04:51:47.650Z,61.63
2023-03-26T04:54:57.085Z,61.86
2023-03-26T04:58:05.615Z,63.23
2023-03-26T05:01:14.216Z,63.56
2023-03-26T05:04:22.609Z,63.55
2023-03-26T05:07:31.122Z,63.64
2023-03-26T05:10:39.603Z,63.76
2023-03-26T05:13:49.006Z,63.41
2023-03-26T05:16:57.634Z,63.10
2023-03-26T05:20:08.462Z,62.81
2023-03-26T05:23:22.653Z,62.38
2023-03-26T05:26:45.593Z,61.82
2023-03-26T05:29:54.569Z,61.49
2023-03-26T05:33:03.405Z,61.22
2023-03-26T05:36:14.549Z,60.41
2023-03-26T05:39:29.585Z,59.96
2023-03-26T05:42:51.557Z,59.80
2023-03-26T05:46:00.708Z,60.06
2023-03-26T05:49:09.215Z,60.20
2023-03-26T05:52:23.561Z,60.59
2023-03-26T05:55:38.672Z,60.23
2023-03-26T05:58:47.740Z,60.13
2023-03-26T06:02:02.569Z,59.92
2023-03-26T06:05:12.286Z,59.77
2023-03-26T06:08:21.565Z,59.12
2023-03-26T06:11:29.573Z,59.03
2023-03-26T06:14:38.210Z,58.72
2023-03-26T06:17:46.631Z,58.69
2023-03-26T06:20:56.199Z,59.00
2023-03-26T06:24:12.614Z,59.14
2023-03-26T06:27:14.248Z,59.31
2023-03-26T06:30:30.626Z,59.32
2023-03-26T06:33:32.568Z,58.43
2023-03-26T06:36:47.595Z,58.40
2023-03-26T06:39:55.593Z,57.79
2023-03-26T06:43:11.210Z,56.44
2023-03-26T06:46:25.660Z,56.29
2023-03-26T06:49:27.654Z,54.88
2023-03-26T06:52:42.602Z,53.55
2023-03-26T06:56:00.611Z,51.45
2023-03-26T06:59:02.703Z,49.91
2023-03-26T07:02:17.601Z,49.33
2023-03-26T07:05:20.030Z,49.04
2023-03-26T07:08:34.626Z,48.79
2023-03-26T07:11:49.631Z,48.83
2023-03-26T07:14:59.655Z,48.49
2023-03-26T07:18:14.634Z,48.22
2023-03-26T07:21:16.649Z,47.64
2023-03-26T07:24:32.734Z,47.88
2023-03-26T07:27:51.610Z,47.86
2023-03-26T07:31:29.758Z,48.91
2023-03-26T07:35:01.621Z,49.28
2023-03-26T07:38:23.885Z,49.79
2023-03-26T07:41:58.951Z,50.18
2023-03-26T07:45:27.658Z,50.67
2023-03-26T07:48:41.971Z,49.53
2023-03-26T07:51:50.632Z,49.45
2023-03-26T07:54:59.404Z,50.13
2023-03-26T07:58:35.662Z,49.60
2023-03-26T08:02:09.728Z,48.33
2023-03-26T08:05:33.256Z,47.00
2023-03-26T08:08:59.686Z,45.51
2023-03-26T08:12:22.935Z,45.58
2023-03-26T08:15:38.057Z,46.01
2023-03-26T08:18:58.638Z,46.23
2023-03-26T08:22:24.654Z,46.11
2023-03-26T08:25:36.023Z,46.27
2023-03-26T08:29:08.691Z,46.37
2023-03-26T08:32:27.096Z,45.99
2023-03-26T08:35:28.905Z,45.88
2023-03-26T08:38:45.673Z,45.17
2023-03-26T08:42:22.328Z,45.47
2023-03-26T08:46:12.719Z,45.43
2023-03-26T08:49:52.668Z,45.21
2023-03-26T08:53:31.049Z,45.00
2023-03-26T08:57:15.680Z,44.28
2023-03-26T09:00:39.604Z,43.98
2023-03-26T09:04:23.734Z,43.60
2023-03-26T09:08:05.755Z,43.56
2023-03-26T09:11:53.674Z,42.96
2023-03-26T09:15:17.069Z,42.08
2023-03-26T09:18:52.509Z,41.83
2023-03-26T09:22:12.795Z,41.18
2023-03-26T09:25:45.718Z,40.45
2023-03-26T09:29:24.681Z,40.44
2023-03-26T09:33:04.745Z,40.17
2023-03-26T09:36:26.806Z,39.42
2023-03-26T09:39:47.079Z,39.17
2023-03-26T09:43:27.716Z,39.31
2023-03-26T09:46:55.361Z,38.15
2023-03-26T09:50:28.706Z,38.04
2023-03-26T09:54:07.281Z,39.47
2023-03-26T09:57:50.780Z,39.19
2023-03-26T10:01:26.700Z,38.84
2023-03-26T10:05:22.126Z,38.34
2023-03-26T10:08:59.819Z,37.66
2023-03-26T10:12:24.725Z,38.51
2023-03-26T10:15:39.913Z,39.06
2023-03-26T10:19:15.718Z,39.00
2023-03-26T10:22:49.742Z,39.10
2023-03-26T10:26:13.570Z,39.81
2023-03-26T10:29:58.748Z,41.35
2023-03-26T10:33:29.024Z,42.77
2023-03-26T10:36:51.013Z,52.73
2023-03-26T10:40:22.800Z,58.73
2023-03-26T10:44:08.483Z,59.88
2023-03-26T10:47:37.724Z,59.71
2023-03-26T10:51:20.054Z,59.09
2023-03-26T10:54:52.714Z,56.54
2023-03-26T10:58:25.746Z,57.00
2023-03-26T11:01:53.823Z,53.56
2023-03-26T11:05:41.931Z,51.31
2023-03-26T11:08:55.042Z,53.52
2023-03-26T11:12:32.781Z,52.89
2023-03-26T11:15:52.128Z,54.76
2023-03-26T11:19:17.780Z,55.39
2023-03-26T11:23:00.736Z,56.45
2023-03-26T11:26:22.802Z,49.81
2023-03-26T11:29:40.723Z,51.01
2023-03-26T11:33:01.135Z,43.11
2023-03-26T11:36:13.703Z,48.38
2023-03-26T11:39:30.755Z,50.16
2023-03-26T11:42:47.891Z,49.75
2023-03-26T11:45:57.752Z,41.32
2023-03-26T11:49:17.770Z,34.30
2023-03-26T11:52:33.839Z,25.32
2023-03-26T11:55:41.762Z,23.74
2023-03-26T11:58:58.858Z,21.91
2023-03-26T12:02:34.009Z,21.08
2023-03-26T12:06:03.802Z,19.39
2023-03-26T12:09:24.090Z,27.37
2023-03-26T12:12:38.425Z,33.55
2023-03-26T12:15:52.842Z,36.99
2023-03-26T12:19:02.866Z,36.65
2023-03-26T12:22:36.804Z,30.00
2023-03-26T12:25:52.807Z,35.20
2023-03-26T12:29:14.806Z,34.17
2023-03-26T12:32:16.545Z,26.05
2023-03-26T12:35:34.094Z,26.89
2023-03-26T12:39:15.928Z,32.12
2023-03-26T12:44:50.754Z,34.88
2023-03-26T12:47:57.602Z,36.68
2023-03-26T12:50:05.834Z,38.27
2023-03-26T12:53:53.516Z,38.57
2023-03-26T12:57:24.858Z,38.38
2023-03-26T13:00:59.101Z,37.22
2023-03-26T13:04:29.167Z,35.56
2023-03-26T13:07:57.837Z,32.96
2023-03-26T13:11:42.838Z,32.93
2023-03-26T13:15:08.595Z,32.33
2023-03-26T13:18:41.946Z,32.57
2023-03-26T13:22:00.246Z,32.36
2023-03-26T13:25:30.825Z,32.43
2023-03-26T13:28:50.653Z,32.73
2023-03-26T13:32:28.867Z,32.58
2023-03-26T13:36:06.570Z,33.09
2023-03-26T13:39:33.799Z,33.48
2023-03-26T13:43:08.858Z,33.13
2023-03-26T13:46:37.894Z,32.84
2023-03-26T13:49:56.189Z,31.40
2023-03-26T13:53:20.141Z,32.15
2023-03-26T13:56:40.046Z,32.57
2023-03-26T14:00:03.162Z,32.83
2023-03-26T14:03:30.900Z,32.07
2023-03-26T14:06:44.013Z,31.49
2023-03-26T14:10:13.883Z,30.83
2023-03-26T14:13:33.326Z,31.46
2023-03-26T14:16:57.879Z,30.70
2023-03-26T14:20:34.983Z,31.66
2023-03-26T14:24:13.189Z,30.58
2023-03-26T14:27:44.146Z,30.73
2023-03-26T14:31:14.897Z,30.77
2023-03-26T14:34:45.585Z,30.98
2023-03-26T14:38:20.908Z,29.78
2023-03-26T14:41:55.845Z,30.32
2023-03-26T14:45:31.317Z,29.89
2023-03-26T14:49:19.854Z,28.79
2023-03-26T14:52:37.466Z,27.70
2023-03-26T14:56:15.043Z,27.11
2023-03-26T14:59:44.933Z,28.14
2023-03-26T15:03:26.513Z,28.17
2023-03-26T15:07:12.181Z,27.94
2023-03-26T15:10:50.905Z,27.93
2023-03-26T15:14:09.437Z,28.79
2023-03-26T15:17:47.965Z,28.72
2023-03-26T15:21:30.112Z,29.70
2023-03-26T15:25:21.026Z,29.97
2023-03-26T15:28:48.941Z,30.18
2023-03-26T15:32:33.770Z,30.73
2023-03-26T15:36:28.892Z,31.45
2023-03-26T15:39:59.311Z,31.22
2023-03-26T15:43:12.973Z,32.08
2023-03-26T15:46:40.178Z,32.37
2023-03-26T15:49:47.598Z,31.73
2023-03-26T15:53:21.929Z,32.06
2023-03-26T15:56:53.196Z,33.02
2023-03-26T16:00:23.228Z,33.58
2023-03-26T16:03:47.922Z,34.21
2023-03-26T16:07:06.927Z,34.18
2023-03-26T16:10:27.586Z,34.46
2023-03-26T16:13:46.947Z,34.92
2023-03-26T16:17:04.925Z,35.17
2023-03-26T16:20:38.930Z,35.63
2023-03-26T16:24:03.033Z,35.32
2023-03-26T16:27:26.249Z,35.51
2023-03-26T16:30:36.985Z,35.92
2023-03-26T16:34:12.002Z,36.23
2023-03-26T16:37:37.397Z,36.40
2023-03-26T16:41:06.979Z,36.68
2023-03-26T16:44:38.134Z,36.72
2023-03-26T16:47:57.999Z,37.30
2023-03-26T16:51:37.697Z,37.38
2023-03-26T16:54:56.995Z,37.23
2023-03-26T16:58:30.062Z,37.44
2023-03-26T17:01:51.983Z,37.95
2023-03-26T17:05:17.220Z,38.10
2023-03-26T17:08:47.001Z,38.20
2023-03-26T17:12:14.936Z,39.06
2023-03-26T17:15:47.187Z,39.03
2023-03-26T17:19:14.104Z,39.56
2023-03-26T17:22:50.713Z,39.85
2023-03-26T17:26:22.998Z,39.78
2023-03-26T17:29:40.028Z,40.22
2023-03-26T17:32:59.213Z,40.67
2023-03-26T17:36:42.966Z,40.66
2023-03-26T17:40:20.389Z,40.83
2023-03-26T17:43:40.762Z,42.02
2023-03-26T17:46:57.026Z,41.48
2023-03-26T17:50:17.682Z,41.03
2023-03-26T17:53:31.197Z,40.78
2023-03-26T17:56:46.993Z,40.90
2023-03-26T18:00:05.165Z,41.37
2023-03-26T18:03:34.015Z,40.47
2023-03-26T18:06:52.139Z,40.34
2023-03-26T18:10:38.030Z,40.77
2023-03-26T18:14:10.737Z,40.27
2023-03-26T18:17:25.013Z,40.31
2023-03-26T18:20:34.989Z,40.08
2023-03-26T18:23:53.998Z,39.92
2023-03-26T18:27:13.235Z,39.95
2023-03-26T18:30:30.377Z,40.20
2023-03-26T18:33:49.034Z,39.85
2023-03-26T18:37:10.807Z,39.97
2023-03-26T18:40:26.014Z,40.39
2023-03-26T18:43:49.055Z,39.90
2023-03-26T18:46:57.805Z,40.31
2023-03-26T18:50:12.989Z,40.29
2023-03-26T18:56:50.609Z,40.42
2023-03-26T19:00:22.344Z,40.55
2023-03-26T19:03:25.264Z,41.22
2023-03-26T19:06:45.007Z,40.80
2023-03-26T19:09:46.852Z,41.34
2023-03-26T19:13:04.061Z,41.22
2023-03-26T19:16:15.495Z,42.34
2023-03-26T19:19:43.082Z,42.21
2023-03-26T19:22:47.185Z,42.57
2023-03-26T19:26:03.024Z,42.80
2023-03-26T19:29:12.086Z,42.57
2023-03-26T19:32:28.693Z,42.54
2023-03-26T19:35:44.122Z,42.13
2023-03-26T19:39:09.077Z,42.66
2023-03-26T19:42:15.502Z,44.25
2023-03-26T19:45:59.801Z,43.12
2023-03-26T19:49:38.064Z,43.24
2023-03-26T19:52:39.695Z,43.41
2023-03-26T19:56:06.315Z,44.03
2023-03-26T19:59:08.213Z,43.69
2023-03-26T20:02:23.205Z,43.73
2023-03-26T20:05:28.931Z,44.22
2023-03-26T20:08:44.209Z,43.82
2023-03-26T20:11:52.078Z,43.80
2023-03-26T20:15:07.084Z,44.67
2023-03-26T20:18:34.129Z,44.74
2023-03-26T20:21:45.094Z,44.50
2023-03-26T20:24:53.728Z,44.37
2023-03-26T20:28:08.050Z,44.95
2023-03-26T20:31:14.383Z,45.05
2023-03-26T20:34:30.133Z,45.12
2023-03-26T20:37:38.954Z,45.43
2023-03-26T20:40:48.190Z,44.94
2023-03-26T20:44:03.752Z,45.27
2023-03-26T20:47:12.489Z,44.84
2023-03-26T20:50:22.589Z,44.99
2023-03-26T20:53:31.088Z,45.10
2023-03-26T20:56:46.087Z,44.84
2023-03-26T20:59:54.578Z,44.98
2023-03-26T21:03:03.098Z,44.76
2023-03-26T21:06:13.241Z,45.13
2023-03-26T21:09:28.911Z,45.77
2023-03-26T21:12:34.781Z,46.29
2023-03-26T21:15:49.163Z,46.59
2023-03-26T21:18:58.080Z,46.47
2023-03-26T21:22:29.118Z,46.84
2023-03-26T21:25:52.819Z,47.29
2023-03-26T21:29:00.832Z,47.90
2023-03-26T21:32:09.110Z,48.75
2023-03-26T21:35:25.154Z,48.84
2023-03-26T21:38:34.199Z,49.25
2023-03-26T21:42:05.026Z,49.98
2023-03-26T21:45:15.114Z,52.26
2023-03-26T21:48:30.137Z,56.94
2023-03-26T21:51:33.226Z,58.67
2023-03-26T21:54:48.175Z,60.88
2023-03-26T21:58:25.122Z,61.49
2023-03-26T22:01:50.200Z,62.47
2023-03-26T22:05:04.135Z,63.05
2023-03-26T22:08:32.743Z,61.89
2023-03-26T22:11:41.136Z,62.47
2023-03-26T22:14:49.608Z,61.77
2023-03-26T22:17:58.202Z,62.06
2023-03-26T22:21:13.153Z,64.25
2023-03-26T22:24:22.009Z,64.36
2023-03-26T22:27:43.834Z,63.57
2023-03-26T22:30:54.618Z,65.99
2023-03-26T22:34:03.401Z,66.97
2023-03-26T22:37:21.840Z,69.11
2023-03-26T22:40:23.698Z,69.62
2023-03-26T22:43:38.121Z,72.89
2023-03-26T22:46:40.131Z,72.95
2023-03-26T22:49:55.238Z,74.41
2023-03-26T22:52:57.331Z,75.69
2023-03-26T22:56:13.906Z,75.17
2023-03-26T22:59:15.601Z,78.11
2023-03-26T23:02:30.185Z,77.03
2023-03-26T23:05:31.966Z,77.08
2023-03-26T23:08:46.152Z,79.33
2023-03-26T23:11:55.147Z,79.53
2023-03-26T23:15:05.449Z,79.66
2023-03-26T23:18:13.275Z,81.42
2023-03-26T23:21:22.465Z,79.95
2023-03-26T23:24:31.224Z,82.25
2023-03-26T23:27:39.728Z,81.69
2023-03-26T23:30:52.157Z,81.55
2023-03-26T23:34:00.704Z,81.56
2023-03-26T23:37:09.482Z,82.36
2023-03-26T23:40:24.168Z,82.72
2023-03-26T23:43:33.165Z,83.24
2023-03-26T23:46:48.409Z,83.86
2023-03-26T23:49:56.787Z,85.37
2023-03-26T23:53:05.290Z,84.25
2023-03-26T23:56:14.119Z,86.39
2023-03-26T23:59:22.166Z,85.96
